SWA3117 KMCO-KDEN
Flight info
| Callsign | SWA3117 |
|---|---|
| Flight time | 3h 40m |
| Altitude | 34000 |
| Route | RDSOX1 JFRYS PATOY Q116 MEMFS RZC PER GCK KIISS CLASH5 |
| Aircraft | B737/M-SDE2E3FGHIRWXY/LB1 |
Departure
| Time | 2026-05-03 21:52 |
|---|---|
| Airport | Orlando International Airport (KMCO) |
Arrival
| Time | 2026-05-04 01:33 |
|---|---|
| Airport | Denver International Airport (KDEN) |
| Time | Latitude | Longitude | Altitude | Speed | Heading |
|---|---|---|---|---|---|
| 2026-05-03 21:30 | 28.43430 | -81.29994 | 104 ft | 0 kts | 284° |
| 2026-05-03 21:37 | 28.43425 | -81.29969 | 104 ft | 4 kts | 285° |
| 2026-05-03 21:38 | 28.43417 | -81.29940 | 104 ft | 4 kts | 288° |
| 2026-05-03 21:38 | 28.43408 | -81.29911 | 104 ft | 4 kts | 297° |
| 2026-05-03 21:38 | 28.43392 | -81.29888 | 104 ft | 4 kts | 338° |
| 2026-05-03 21:38 | 28.43385 | -81.29886 | 104 ft | 0 kts | 359° |
| 2026-05-03 21:42 | 28.43420 | -81.29880 | 104 ft | 13 kts | 31° |
| 2026-05-03 21:42 | 28.43412 | -81.29804 | 104 ft | 12 kts | 158° |
| 2026-05-03 21:43 | 28.43317 | -81.29804 | 104 ft | 15 kts | 179° |
| 2026-05-03 21:43 | 28.43212 | -81.29802 | 104 ft | 16 kts | 180° |
| 2026-05-03 21:43 | 28.43081 | -81.29801 | 104 ft | 20 kts | 180° |
| 2026-05-03 21:43 | 28.42942 | -81.29799 | 104 ft | 19 kts | 179° |
| 2026-05-03 21:44 | 28.42810 | -81.29798 | 104 ft | 18 kts | 179° |
| 2026-05-03 21:44 | 28.42685 | -81.29797 | 104 ft | 18 kts | 179° |
| 2026-05-03 21:44 | 28.42566 | -81.29794 | 104 ft | 17 kts | 180° |
| 2026-05-03 21:44 | 28.42449 | -81.29794 | 104 ft | 19 kts | 180° |
| 2026-05-03 21:45 | 28.42313 | -81.29795 | 104 ft | 18 kts | 188° |
| 2026-05-03 21:45 | 28.42280 | -81.29906 | 104 ft | 16 kts | 271° |
| 2026-05-03 21:45 | 28.42279 | -81.30031 | 104 ft | 17 kts | 270° |
| 2026-05-03 21:45 | 28.42278 | -81.30191 | 104 ft | 22 kts | 269° |
| 2026-05-03 21:46 | 28.42274 | -81.30358 | 104 ft | 21 kts | 267° |
| 2026-05-03 21:46 | 28.42266 | -81.30516 | 104 ft | 20 kts | 265° |
| 2026-05-03 21:46 | 28.42255 | -81.30668 | 104 ft | 20 kts | 266° |
| 2026-05-03 21:46 | 28.42245 | -81.30817 | 104 ft | 18 kts | 265° |
| 2026-05-03 21:47 | 28.42234 | -81.30954 | 104 ft | 17 kts | 265° |
| 2026-05-03 21:47 | 28.42242 | -81.31092 | 104 ft | 17 kts | 280° |
| 2026-05-03 21:47 | 28.42263 | -81.31223 | 104 ft | 16 kts | 276° |
| 2026-05-03 21:47 | 28.42269 | -81.31359 | 104 ft | 18 kts | 270° |
| 2026-05-03 21:48 | 28.42267 | -81.31499 | 104 ft | 17 kts | 269° |
| 2026-05-03 21:48 | 28.42267 | -81.31631 | 104 ft | 16 kts | 269° |
| 2026-05-03 21:48 | 28.42266 | -81.31753 | 104 ft | 15 kts | 269° |
| 2026-05-03 21:48 | 28.42264 | -81.31857 | 104 ft | 9 kts | 268° |
| 2026-05-03 21:49 | 28.42262 | -81.31926 | 104 ft | 13 kts | 268° |
| 2026-05-03 21:49 | 28.42188 | -81.31986 | 104 ft | 14 kts | 180° |
| 2026-05-03 21:49 | 28.42098 | -81.31985 | 104 ft | 14 kts | 179° |
| 2026-05-03 21:49 | 28.41973 | -81.31983 | 104 ft | 19 kts | 178° |
| 2026-05-03 21:50 | 28.41857 | -81.31982 | 104 ft | 15 kts | 179° |
| 2026-05-03 21:50 | 28.41791 | -81.31981 | 104 ft | 13 kts | 179° |
| 2026-05-03 21:50 | 28.41700 | -81.31980 | 104 ft | 13 kts | 179° |
| 2026-05-03 21:50 | 28.41614 | -81.31979 | 104 ft | 12 kts | 179° |
| 2026-05-03 21:51 | 28.41549 | -81.32008 | 104 ft | 9 kts | 248° |
| 2026-05-03 21:51 | 28.41549 | -81.32080 | 104 ft | 11 kts | 265° |
| 2026-05-03 21:51 | 28.41543 | -81.32169 | 104 ft | 11 kts | 267° |
| 2026-05-03 21:51 | 28.41588 | -81.32198 | 104 ft | 9 kts | 360° |
| 2026-05-03 21:52 | 28.41844 | -81.32198 | 104 ft | 68 kts | 356° |
| 2026-05-03 21:52 | 28.42545 | -81.32214 | 105 ft | 134 kts | 4° |
| 2026-05-03 21:52 | 28.43670 | -81.32212 | 379 ft | 181 kts | 0° |
| 2026-05-03 21:52 | 28.45007 | -81.32229 | 1210 ft | 202 kts | 359° |
| 2026-05-03 21:53 | 28.46455 | -81.32293 | 2214 ft | 207 kts | 358° |
| 2026-05-03 21:53 | 28.47833 | -81.32378 | 3179 ft | 199 kts | 0° |
| 2026-05-03 21:53 | 28.49275 | -81.32387 | 3543 ft | 219 kts | 2° |
| 2026-05-03 21:53 | 28.50839 | -81.32346 | 4200 ft | 228 kts | 2° |
| 2026-05-03 21:54 | 28.52432 | -81.32420 | 5120 ft | 231 kts | 357° |
| 2026-05-03 21:54 | 28.54047 | -81.32663 | 5932 ft | 239 kts | 348° |
| 2026-05-03 21:54 | 28.55592 | -81.33544 | 6486 ft | 261 kts | 323° |
| 2026-05-03 21:54 | 28.56719 | -81.35207 | 7204 ft | 275 kts | 298° |
| 2026-05-03 21:55 | 28.57163 | -81.37351 | 8011 ft | 285 kts | 274° |
| 2026-05-03 21:55 | 28.56957 | -81.39614 | 8851 ft | 291 kts | 259° |
| 2026-05-03 21:55 | 28.56372 | -81.41836 | 9718 ft | 293 kts | 255° |
| 2026-05-03 21:55 | 28.55774 | -81.44057 | 10603 ft | 295 kts | 254° |
| 2026-05-03 21:56 | 28.55153 | -81.46313 | 11279 ft | 305 kts | 255° |
| 2026-05-03 21:56 | 28.54499 | -81.48685 | 11680 ft | 323 kts | 254° |
| 2026-05-03 21:56 | 28.53809 | -81.51195 | 12031 ft | 342 kts | 254° |
| 2026-05-03 21:56 | 28.53084 | -81.53830 | 12520 ft | 354 kts | 254° |
| 2026-05-03 21:57 | 28.52343 | -81.56524 | 13235 ft | 359 kts | 255° |
| 2026-05-03 21:57 | 28.51612 | -81.59253 | 13994 ft | 363 kts | 255° |
| 2026-05-03 21:57 | 28.50877 | -81.61978 | 14749 ft | 366 kts | 255° |
| 2026-05-03 21:57 | 28.50117 | -81.64760 | 15470 ft | 371 kts | 255° |
| 2026-05-03 21:58 | 28.49344 | -81.67574 | 15873 ft | 374 kts | 255° |
| 2026-05-03 21:58 | 28.48566 | -81.70398 | 15972 ft | 375 kts | 255° |
| 2026-05-03 21:58 | 28.47782 | -81.73230 | 16001 ft | 375 kts | 255° |
| 2026-05-03 21:58 | 28.47001 | -81.76050 | 16006 ft | 374 kts | 255° |
| 2026-05-03 21:59 | 28.46219 | -81.78874 | 16009 ft | 374 kts | 255° |
| 2026-05-03 21:59 | 28.45437 | -81.81697 | 16007 ft | 374 kts | 255° |
| 2026-05-03 21:59 | 28.44653 | -81.84522 | 16010 ft | 375 kts | 255° |
| 2026-05-03 21:59 | 28.43881 | -81.87351 | 16009 ft | 375 kts | 256° |
| 2026-05-03 22:00 | 28.43331 | -81.90247 | 16141 ft | 378 kts | 263° |
| 2026-05-03 22:00 | 28.43144 | -81.93218 | 16930 ft | 376 kts | 271° |
| 2026-05-03 22:00 | 28.43140 | -81.96158 | 17666 ft | 378 kts | 272° |
| 2026-05-03 22:00 | 28.43160 | -81.99166 | 18338 ft | 382 kts | 272° |
| 2026-05-03 22:01 | 28.43180 | -82.02194 | 18999 ft | 385 kts | 272° |
| 2026-05-03 22:01 | 28.43196 | -82.05253 | 19651 ft | 388 kts | 272° |
| 2026-05-03 22:01 | 28.43214 | -82.08336 | 20271 ft | 392 kts | 272° |
| 2026-05-03 22:01 | 28.43234 | -82.11449 | 20855 ft | 396 kts | 272° |
| 2026-05-03 22:02 | 28.43272 | -82.14589 | 21444 ft | 399 kts | 272° |
| 2026-05-03 22:02 | 28.43298 | -82.17764 | 22004 ft | 402 kts | 272° |
| 2026-05-03 22:02 | 28.43345 | -82.20953 | 22562 ft | 404 kts | 275° |
| 2026-05-03 22:02 | 28.43911 | -82.24072 | 23077 ft | 405 kts | 291° |
| 2026-05-03 22:03 | 28.45251 | -82.26895 | 23569 ft | 408 kts | 306° |
| 2026-05-03 22:03 | 28.47136 | -82.29255 | 24041 ft | 411 kts | 318° |
| 2026-05-03 22:03 | 28.49294 | -82.31405 | 24509 ft | 414 kts | 317° |
| 2026-05-03 22:03 | 28.51439 | -82.33602 | 24999 ft | 416 kts | 317° |
| 2026-05-03 22:04 | 28.53602 | -82.35813 | 25444 ft | 419 kts | 317° |
| 2026-05-03 22:04 | 28.55780 | -82.38038 | 25908 ft | 421 kts | 317° |
| 2026-05-03 22:04 | 28.57969 | -82.40277 | 26207 ft | 425 kts | 316° |
| 2026-05-03 22:04 | 28.60170 | -82.42523 | 26276 ft | 427 kts | 317° |
| 2026-05-03 22:05 | 28.62376 | -82.44776 | 26284 ft | 425 kts | 317° |
| 2026-05-03 22:05 | 28.64576 | -82.47024 | 26289 ft | 423 kts | 317° |
| 2026-05-03 22:05 | 28.66768 | -82.49264 | 26292 ft | 423 kts | 317° |
| 2026-05-03 22:05 | 28.68963 | -82.51509 | 26370 ft | 427 kts | 317° |
| 2026-05-03 22:06 | 28.71172 | -82.53769 | 26874 ft | 425 kts | 317° |
| 2026-05-03 22:06 | 28.73380 | -82.56019 | 27378 ft | 426 kts | 317° |
| 2026-05-03 22:06 | 28.75597 | -82.58271 | 27735 ft | 429 kts | 317° |
| 2026-05-03 22:06 | 28.77829 | -82.60546 | 28119 ft | 430 kts | 317° |
| 2026-05-03 22:07 | 28.80060 | -82.62827 | 28472 ft | 432 kts | 317° |
| 2026-05-03 22:07 | 28.82304 | -82.65121 | 28886 ft | 432 kts | 317° |
| 2026-05-03 22:07 | 28.84545 | -82.67400 | 29401 ft | 430 kts | 317° |
| 2026-05-03 22:07 | 28.86763 | -82.69667 | 29955 ft | 426 kts | 317° |
| 2026-05-03 22:08 | 28.88963 | -82.71924 | 30461 ft | 424 kts | 316° |
| 2026-05-03 22:08 | 28.91125 | -82.74147 | 30838 ft | 424 kts | 316° |
| 2026-05-03 22:08 | 28.93316 | -82.76402 | 31224 ft | 424 kts | 316° |
| 2026-05-03 22:08 | 28.95508 | -82.78661 | 31610 ft | 424 kts | 316° |
| 2026-05-03 22:09 | 28.97692 | -82.80912 | 32034 ft | 422 kts | 316° |
| 2026-05-03 22:09 | 28.99870 | -82.83159 | 32421 ft | 421 kts | 316° |
| 2026-05-03 22:09 | 29.02043 | -82.85400 | 32801 ft | 420 kts | 316° |
| 2026-05-03 22:10 | 29.06391 | -82.89854 | 33489 ft | 420 kts | 319° |
| 2026-05-03 22:10 | 29.08694 | -82.91908 | 33826 ft | 420 kts | 322° |
| 2026-05-03 22:10 | 29.11084 | -82.93836 | 34157 ft | 419 kts | 324° |
| 2026-05-03 22:10 | 29.13492 | -82.95740 | 34300 ft | 422 kts | 323° |
| 2026-05-03 22:11 | 29.15896 | -82.97684 | 34312 ft | 423 kts | 323° |
| 2026-05-03 22:11 | 29.20668 | -83.01588 | 34326 ft | 420 kts | 323° |
| 2026-05-03 22:12 | 29.25392 | -83.05463 | 34338 ft | 416 kts | 323° |
| 2026-05-03 22:12 | 29.30102 | -83.09327 | 34342 ft | 416 kts | 323° |
| 2026-05-03 22:13 | 29.34782 | -83.13173 | 34343 ft | 416 kts | 323° |
| 2026-05-03 22:13 | 29.39490 | -83.17048 | 34344 ft | 416 kts | 323° |
| 2026-05-03 22:14 | 29.44194 | -83.20925 | 34346 ft | 416 kts | 323° |
| 2026-05-03 22:14 | 29.48886 | -83.24796 | 34347 ft | 415 kts | 323° |
| 2026-05-03 22:15 | 29.53567 | -83.28660 | 34346 ft | 415 kts | 323° |
| 2026-05-03 22:15 | 29.58263 | -83.32514 | 34347 ft | 414 kts | 323° |
| 2026-05-03 22:16 | 29.62950 | -83.36362 | 34347 ft | 414 kts | 323° |
| 2026-05-03 22:16 | 29.67629 | -83.40230 | 34349 ft | 413 kts | 323° |
| 2026-05-03 22:17 | 29.72261 | -83.44073 | 34356 ft | 413 kts | 323° |
| 2026-05-03 22:17 | 29.76923 | -83.47947 | 34366 ft | 413 kts | 323° |
| 2026-05-03 22:18 | 29.81577 | -83.51819 | 34370 ft | 412 kts | 323° |
| 2026-05-03 22:18 | 29.86224 | -83.55686 | 34370 ft | 412 kts | 323° |
| 2026-05-03 22:19 | 29.90876 | -83.59540 | 34371 ft | 412 kts | 324° |
| 2026-05-03 22:19 | 29.95514 | -83.63363 | 34371 ft | 412 kts | 324° |
| 2026-05-03 22:20 | 30.00162 | -83.67222 | 34372 ft | 412 kts | 324° |
| 2026-05-03 22:20 | 30.04802 | -83.71087 | 34372 ft | 410 kts | 324° |
| 2026-05-03 22:21 | 30.09433 | -83.74949 | 34372 ft | 411 kts | 324° |
| 2026-05-03 22:21 | 30.14066 | -83.78815 | 34372 ft | 410 kts | 324° |
| 2026-05-03 22:22 | 30.18694 | -83.82684 | 34373 ft | 410 kts | 323° |
| 2026-05-03 22:22 | 30.23287 | -83.86543 | 34373 ft | 410 kts | 323° |
| 2026-05-03 22:23 | 30.27907 | -83.90435 | 34374 ft | 410 kts | 323° |
| 2026-05-03 22:23 | 30.32520 | -83.94327 | 34374 ft | 410 kts | 323° |
| 2026-05-03 22:24 | 30.37129 | -83.98222 | 34374 ft | 410 kts | 323° |
| 2026-05-03 22:24 | 30.41736 | -84.02119 | 34375 ft | 409 kts | 323° |
| 2026-05-03 22:25 | 30.46330 | -84.05998 | 34376 ft | 408 kts | 324° |
| 2026-05-03 22:25 | 30.50929 | -84.09865 | 34377 ft | 408 kts | 324° |
| 2026-05-03 22:26 | 30.55514 | -84.13737 | 34377 ft | 407 kts | 324° |
| 2026-05-03 22:26 | 30.60095 | -84.17617 | 34378 ft | 407 kts | 323° |
| 2026-05-03 22:27 | 30.64662 | -84.21492 | 34381 ft | 406 kts | 323° |
| 2026-05-03 22:27 | 30.69192 | -84.25341 | 34384 ft | 406 kts | 323° |
| 2026-05-03 22:28 | 30.73743 | -84.29213 | 34384 ft | 405 kts | 323° |
| 2026-05-03 22:28 | 30.78282 | -84.33080 | 34384 ft | 404 kts | 323° |
| 2026-05-03 22:29 | 30.82817 | -84.36948 | 34383 ft | 404 kts | 323° |
| 2026-05-03 22:29 | 30.87341 | -84.40811 | 34390 ft | 403 kts | 323° |
| 2026-05-03 22:30 | 30.91863 | -84.44679 | 34391 ft | 403 kts | 323° |
| 2026-05-03 22:30 | 30.96384 | -84.48549 | 34392 ft | 402 kts | 323° |
| 2026-05-03 22:31 | 31.00891 | -84.52412 | 34393 ft | 402 kts | 323° |
| 2026-05-03 22:31 | 31.05394 | -84.56275 | 34394 ft | 401 kts | 323° |
| 2026-05-03 22:32 | 31.09887 | -84.60136 | 34395 ft | 401 kts | 323° |
| 2026-05-03 22:32 | 31.14378 | -84.63999 | 34395 ft | 400 kts | 323° |
| 2026-05-03 22:33 | 31.18833 | -84.67835 | 34396 ft | 400 kts | 323° |
| 2026-05-03 22:33 | 31.23377 | -84.71754 | 34661 ft | 406 kts | 323° |
| 2026-05-03 22:33 | 31.25618 | -84.73688 | 34954 ft | 405 kts | 323° |
| 2026-05-03 22:34 | 31.27877 | -84.75639 | 35291 ft | 403 kts | 323° |
| 2026-05-03 22:34 | 31.30134 | -84.77589 | 35592 ft | 402 kts | 323° |
| 2026-05-03 22:34 | 31.32387 | -84.79525 | 35887 ft | 401 kts | 324° |
| 2026-05-03 22:34 | 31.34630 | -84.81457 | 36185 ft | 400 kts | 324° |
| 2026-05-03 22:35 | 31.36865 | -84.83389 | 36370 ft | 400 kts | 323° |
| 2026-05-03 22:35 | 31.41352 | -84.87281 | 36403 ft | 401 kts | 323° |
| 2026-05-03 22:36 | 31.45065 | -84.90508 | 36406 ft | 400 kts | 323° |
| 2026-05-03 22:36 | 31.49522 | -84.94387 | 36406 ft | 399 kts | 323° |
| 2026-05-03 22:37 | 31.53984 | -84.98271 | 36406 ft | 399 kts | 323° |
| 2026-05-03 22:37 | 31.58437 | -85.02155 | 36403 ft | 398 kts | 323° |
| 2026-05-03 22:38 | 31.62873 | -85.06038 | 36402 ft | 398 kts | 323° |
| 2026-05-03 22:38 | 31.67307 | -85.09929 | 36401 ft | 397 kts | 323° |
| 2026-05-03 22:39 | 31.71737 | -85.13824 | 36400 ft | 397 kts | 323° |
| 2026-05-03 22:39 | 31.76154 | -85.17714 | 36401 ft | 396 kts | 323° |
| 2026-05-03 22:40 | 31.80545 | -85.21585 | 36400 ft | 396 kts | 323° |
| 2026-05-03 22:40 | 31.84964 | -85.25480 | 36400 ft | 396 kts | 324° |
| 2026-05-03 22:41 | 31.89387 | -85.29350 | 36400 ft | 396 kts | 324° |
| 2026-05-03 22:41 | 31.93794 | -85.33226 | 36400 ft | 395 kts | 323° |
| 2026-05-03 22:42 | 31.98192 | -85.37105 | 36397 ft | 395 kts | 324° |
| 2026-05-03 22:42 | 32.02558 | -85.40964 | 36391 ft | 394 kts | 323° |
| 2026-05-03 22:43 | 32.06928 | -85.44833 | 36387 ft | 393 kts | 323° |
| 2026-05-03 22:43 | 32.11300 | -85.48709 | 36387 ft | 393 kts | 323° |
| 2026-05-03 22:44 | 32.15667 | -85.52586 | 36385 ft | 392 kts | 323° |
| 2026-05-03 22:44 | 32.20025 | -85.56459 | 36383 ft | 392 kts | 323° |
| 2026-05-03 22:45 | 32.24381 | -85.60337 | 36381 ft | 392 kts | 323° |
| 2026-05-03 22:45 | 32.28736 | -85.64217 | 36379 ft | 392 kts | 323° |
| 2026-05-03 22:46 | 32.33098 | -85.68109 | 36378 ft | 392 kts | 323° |
| 2026-05-03 22:46 | 32.37425 | -85.71973 | 36378 ft | 392 kts | 323° |
| 2026-05-03 22:47 | 32.41783 | -85.75871 | 36376 ft | 392 kts | 323° |
| 2026-05-03 22:47 | 32.46132 | -85.79766 | 36370 ft | 392 kts | 323° |
| 2026-05-03 22:48 | 32.50484 | -85.83668 | 36368 ft | 392 kts | 323° |
| 2026-05-03 22:48 | 32.54828 | -85.87567 | 36367 ft | 392 kts | 323° |
| 2026-05-03 22:49 | 32.59176 | -85.91475 | 36365 ft | 392 kts | 323° |
| 2026-05-03 22:49 | 32.63523 | -85.95392 | 36364 ft | 392 kts | 323° |
| 2026-05-03 22:50 | 32.67865 | -85.99302 | 36362 ft | 392 kts | 323° |
| 2026-05-03 22:50 | 32.72205 | -86.03217 | 36361 ft | 391 kts | 323° |
| 2026-05-03 22:51 | 32.76493 | -86.07090 | 36360 ft | 389 kts | 323° |
| 2026-05-03 22:51 | 32.80806 | -86.10990 | 36359 ft | 390 kts | 323° |
| 2026-05-03 22:52 | 32.85121 | -86.14897 | 36359 ft | 390 kts | 323° |
| 2026-05-03 22:52 | 32.89435 | -86.18809 | 36358 ft | 390 kts | 323° |
| 2026-05-03 22:53 | 32.93739 | -86.22717 | 36357 ft | 389 kts | 323° |
| 2026-05-03 22:53 | 32.98039 | -86.26626 | 36357 ft | 389 kts | 323° |
| 2026-05-03 22:54 | 33.02333 | -86.30534 | 36356 ft | 389 kts | 323° |
| 2026-05-03 22:54 | 33.06347 | -86.34192 | 36355 ft | 389 kts | 323° |
| 2026-05-03 22:55 | 33.10640 | -86.38109 | 36355 ft | 388 kts | 323° |
| 2026-05-03 22:55 | 33.14924 | -86.42024 | 36352 ft | 388 kts | 323° |
| 2026-05-03 22:56 | 33.19207 | -86.45941 | 36351 ft | 388 kts | 323° |
| 2026-05-03 22:56 | 33.23489 | -86.49862 | 36353 ft | 388 kts | 323° |
| 2026-05-03 22:57 | 33.27771 | -86.53789 | 36354 ft | 388 kts | 323° |
| 2026-05-03 22:57 | 33.32054 | -86.57721 | 36354 ft | 388 kts | 323° |
| 2026-05-03 22:58 | 33.36300 | -86.61625 | 36355 ft | 387 kts | 323° |
| 2026-05-03 22:58 | 33.40568 | -86.65554 | 36356 ft | 387 kts | 323° |
| 2026-05-03 22:59 | 33.44846 | -86.69472 | 36357 ft | 387 kts | 324° |
| 2026-05-03 22:59 | 33.49112 | -86.73406 | 36359 ft | 387 kts | 323° |
| 2026-05-03 23:00 | 33.53378 | -86.77356 | 36360 ft | 386 kts | 323° |
| 2026-05-03 23:00 | 33.57629 | -86.81298 | 36360 ft | 386 kts | 323° |
| 2026-05-03 23:01 | 33.61855 | -86.85221 | 36359 ft | 386 kts | 323° |
| 2026-05-03 23:01 | 33.65931 | -86.89420 | 36357 ft | 389 kts | 315° |
| 2026-05-03 23:02 | 33.69083 | -86.94739 | 36356 ft | 393 kts | 306° |
| 2026-05-03 23:02 | 33.71767 | -87.00463 | 36353 ft | 393 kts | 303° |
| 2026-05-03 23:03 | 33.74388 | -87.06239 | 36350 ft | 394 kts | 303° |
| 2026-05-03 23:03 | 33.77034 | -87.11995 | 36347 ft | 393 kts | 304° |
| 2026-05-03 23:04 | 33.79664 | -87.17759 | 36344 ft | 393 kts | 303° |
| 2026-05-03 23:04 | 33.82274 | -87.23532 | 36341 ft | 392 kts | 304° |
| 2026-05-03 23:05 | 33.84863 | -87.29279 | 36338 ft | 393 kts | 304° |
| 2026-05-03 23:05 | 33.87459 | -87.35051 | 36336 ft | 392 kts | 304° |
| 2026-05-03 23:06 | 33.90059 | -87.40826 | 36333 ft | 392 kts | 304° |
| 2026-05-03 23:06 | 33.92665 | -87.46615 | 36331 ft | 392 kts | 304° |
| 2026-05-03 23:07 | 33.95249 | -87.52401 | 36329 ft | 392 kts | 304° |
| 2026-05-03 23:07 | 33.97823 | -87.58198 | 36327 ft | 392 kts | 303° |
| 2026-05-03 23:08 | 34.00394 | -87.63995 | 36323 ft | 391 kts | 304° |
| 2026-05-03 23:08 | 34.02957 | -87.69781 | 36317 ft | 391 kts | 304° |
| 2026-05-03 23:09 | 34.05530 | -87.75565 | 36316 ft | 391 kts | 304° |
| 2026-05-03 23:09 | 34.08095 | -87.81353 | 36316 ft | 391 kts | 304° |
| 2026-05-03 23:10 | 34.10656 | -87.87148 | 36315 ft | 391 kts | 304° |
| 2026-05-03 23:10 | 34.13198 | -87.92913 | 36313 ft | 391 kts | 304° |
| 2026-05-03 23:11 | 34.15752 | -87.98717 | 36310 ft | 392 kts | 304° |
| 2026-05-03 23:11 | 34.18305 | -88.04529 | 36309 ft | 391 kts | 304° |
| 2026-05-03 23:12 | 34.20887 | -88.10323 | 36307 ft | 391 kts | 304° |
| 2026-05-03 23:12 | 34.23457 | -88.16114 | 36304 ft | 391 kts | 304° |
| 2026-05-03 23:13 | 34.26011 | -88.21904 | 36302 ft | 391 kts | 304° |
| 2026-05-03 23:13 | 34.28566 | -88.27717 | 36302 ft | 391 kts | 304° |
| 2026-05-03 23:14 | 34.31115 | -88.33534 | 36296 ft | 391 kts | 304° |
| 2026-05-03 23:14 | 34.33654 | -88.39339 | 36294 ft | 390 kts | 304° |
| 2026-05-03 23:15 | 34.36176 | -88.45116 | 36293 ft | 391 kts | 304° |
| 2026-05-03 23:15 | 34.38711 | -88.50933 | 36288 ft | 390 kts | 304° |
| 2026-05-03 23:16 | 34.41241 | -88.56749 | 36288 ft | 390 kts | 304° |
| 2026-05-03 23:16 | 34.43767 | -88.62566 | 36289 ft | 390 kts | 304° |
| 2026-05-03 23:17 | 34.46286 | -88.68377 | 36289 ft | 389 kts | 304° |
| 2026-05-03 23:17 | 34.48800 | -88.74187 | 36289 ft | 389 kts | 304° |
| 2026-05-03 23:18 | 34.51312 | -88.79998 | 36289 ft | 389 kts | 304° |
| 2026-05-03 23:18 | 34.53821 | -88.85817 | 36286 ft | 388 kts | 305° |
| 2026-05-03 23:19 | 34.56327 | -88.91636 | 36285 ft | 389 kts | 305° |
| 2026-05-03 23:19 | 34.58811 | -88.97415 | 36281 ft | 388 kts | 305° |
| 2026-05-03 23:20 | 34.61304 | -89.03224 | 36278 ft | 388 kts | 305° |
| 2026-05-03 23:20 | 34.63796 | -89.09041 | 36275 ft | 388 kts | 305° |
| 2026-05-03 23:21 | 34.66280 | -89.14850 | 36272 ft | 388 kts | 305° |
| 2026-05-03 23:21 | 34.68761 | -89.20662 | 36268 ft | 387 kts | 305° |
| 2026-05-03 23:22 | 34.72054 | -89.28391 | 36263 ft | 387 kts | 305° |
| 2026-05-03 23:22 | 34.74531 | -89.34215 | 36259 ft | 387 kts | 305° |
| 2026-05-03 23:23 | 34.77000 | -89.40030 | 36256 ft | 387 kts | 305° |
| 2026-05-03 23:23 | 34.79469 | -89.45859 | 36252 ft | 387 kts | 305° |
| 2026-05-03 23:24 | 34.81933 | -89.51682 | 36249 ft | 387 kts | 305° |
| 2026-05-03 23:24 | 34.84397 | -89.57518 | 36246 ft | 387 kts | 305° |
| 2026-05-03 23:25 | 34.86862 | -89.63356 | 36243 ft | 386 kts | 306° |
| 2026-05-03 23:25 | 34.89334 | -89.69164 | 36242 ft | 386 kts | 306° |
| 2026-05-03 23:26 | 34.91787 | -89.75005 | 36241 ft | 387 kts | 305° |
| 2026-05-03 23:26 | 34.94210 | -89.80802 | 36240 ft | 386 kts | 305° |
| 2026-05-03 23:27 | 34.96642 | -89.86635 | 36241 ft | 386 kts | 305° |
| 2026-05-03 23:27 | 34.99069 | -89.92462 | 36244 ft | 385 kts | 305° |
| 2026-05-03 23:28 | 35.01487 | -89.98298 | 36247 ft | 386 kts | 304° |
| 2026-05-03 23:28 | 35.03562 | -90.04398 | 36249 ft | 391 kts | 300° |
| 2026-05-03 23:29 | 35.05476 | -90.10622 | 36247 ft | 391 kts | 300° |
| 2026-05-03 23:29 | 35.07403 | -90.16828 | 36243 ft | 391 kts | 301° |
| 2026-05-03 23:30 | 35.09325 | -90.22985 | 36241 ft | 391 kts | 301° |
| 2026-05-03 23:30 | 35.11265 | -90.29189 | 36240 ft | 391 kts | 301° |
| 2026-05-03 23:31 | 35.13204 | -90.35391 | 36240 ft | 391 kts | 301° |
| 2026-05-03 23:31 | 35.15170 | -90.41565 | 36239 ft | 390 kts | 301° |
| 2026-05-03 23:32 | 35.17139 | -90.47750 | 36238 ft | 390 kts | 301° |
| 2026-05-03 23:32 | 35.19093 | -90.53942 | 36238 ft | 390 kts | 301° |
| 2026-05-03 23:33 | 35.21026 | -90.60099 | 36238 ft | 391 kts | 301° |
| 2026-05-03 23:33 | 35.22970 | -90.66314 | 36237 ft | 391 kts | 301° |
| 2026-05-03 23:34 | 35.24909 | -90.72529 | 36236 ft | 391 kts | 301° |
| 2026-05-03 23:34 | 35.26845 | -90.78749 | 36234 ft | 392 kts | 300° |
| 2026-05-03 23:35 | 35.28782 | -90.84989 | 36232 ft | 392 kts | 301° |
| 2026-05-03 23:35 | 35.30716 | -90.91232 | 36232 ft | 393 kts | 300° |
| 2026-05-03 23:36 | 35.32651 | -90.97492 | 36231 ft | 393 kts | 300° |
| 2026-05-03 23:36 | 35.34578 | -91.03741 | 36230 ft | 392 kts | 300° |
| 2026-05-03 23:37 | 35.36493 | -91.09960 | 36229 ft | 392 kts | 300° |
| 2026-05-03 23:37 | 35.38415 | -91.16221 | 36229 ft | 392 kts | 300° |
| 2026-05-03 23:38 | 35.40335 | -91.22491 | 36227 ft | 392 kts | 300° |
| 2026-05-03 23:38 | 35.42252 | -91.28757 | 36227 ft | 393 kts | 300° |
| 2026-05-03 23:39 | 35.44169 | -91.35041 | 36227 ft | 393 kts | 300° |
| 2026-05-03 23:39 | 35.46085 | -91.41330 | 36225 ft | 394 kts | 300° |
| 2026-05-03 23:40 | 35.47996 | -91.47622 | 36225 ft | 394 kts | 300° |
| 2026-05-03 23:40 | 35.49906 | -91.53921 | 36224 ft | 394 kts | 300° |
| 2026-05-03 23:41 | 35.51812 | -91.60222 | 36224 ft | 393 kts | 300° |
| 2026-05-03 23:41 | 35.53696 | -91.66467 | 36223 ft | 393 kts | 300° |
| 2026-05-03 23:42 | 35.55592 | -91.72762 | 36222 ft | 393 kts | 300° |
| 2026-05-03 23:42 | 35.57483 | -91.79055 | 36221 ft | 393 kts | 300° |
| 2026-05-03 23:43 | 35.59374 | -91.85363 | 36221 ft | 393 kts | 299° |
| 2026-05-03 23:43 | 35.61254 | -91.91647 | 36221 ft | 393 kts | 299° |
| 2026-05-03 23:44 | 35.63134 | -91.97947 | 36220 ft | 393 kts | 299° |
| 2026-05-03 23:44 | 35.65016 | -92.04265 | 36219 ft | 394 kts | 299° |
| 2026-05-03 23:45 | 35.66894 | -92.10587 | 36219 ft | 393 kts | 299° |
| 2026-05-03 23:45 | 35.68770 | -92.16911 | 36219 ft | 393 kts | 299° |
| 2026-05-03 23:46 | 35.70646 | -92.23250 | 36217 ft | 394 kts | 299° |
| 2026-05-03 23:46 | 35.72518 | -92.29593 | 36207 ft | 394 kts | 299° |
| 2026-05-03 23:47 | 35.74377 | -92.35904 | 36198 ft | 394 kts | 299° |
| 2026-05-03 23:47 | 35.76240 | -92.42256 | 36194 ft | 395 kts | 299° |
| 2026-05-03 23:48 | 35.78113 | -92.48634 | 36191 ft | 395 kts | 298° |
| 2026-05-03 23:48 | 35.79977 | -92.55004 | 36188 ft | 395 kts | 298° |
| 2026-05-03 23:49 | 35.81838 | -92.61386 | 36188 ft | 396 kts | 298° |
| 2026-05-03 23:49 | 35.83699 | -92.67773 | 36186 ft | 396 kts | 298° |
| 2026-05-03 23:50 | 35.85245 | -92.73091 | 36186 ft | 396 kts | 298° |
| 2026-05-03 23:50 | 35.87400 | -92.80522 | 36184 ft | 396 kts | 298° |
| 2026-05-03 23:51 | 35.89252 | -92.86927 | 36183 ft | 396 kts | 298° |
| 2026-05-03 23:51 | 35.91102 | -92.93338 | 36183 ft | 397 kts | 298° |
| 2026-05-03 23:52 | 35.92951 | -92.99760 | 36182 ft | 397 kts | 298° |
| 2026-05-03 23:52 | 35.94798 | -93.06193 | 36184 ft | 398 kts | 298° |
| 2026-05-03 23:53 | 35.96640 | -93.12621 | 36185 ft | 397 kts | 297° |
| 2026-05-03 23:53 | 35.98470 | -93.19022 | 36182 ft | 398 kts | 297° |
| 2026-05-03 23:54 | 36.00310 | -93.25475 | 36180 ft | 398 kts | 297° |
| 2026-05-03 23:54 | 36.02133 | -93.31880 | 36179 ft | 395 kts | 297° |
| 2026-05-03 23:55 | 36.03952 | -93.38287 | 36181 ft | 396 kts | 297° |
| 2026-05-03 23:55 | 36.05770 | -93.44709 | 36181 ft | 395 kts | 297° |
| 2026-05-03 23:56 | 36.07574 | -93.51090 | 36182 ft | 396 kts | 297° |
| 2026-05-03 23:56 | 36.09387 | -93.57522 | 36183 ft | 396 kts | 297° |
| 2026-05-03 23:57 | 36.11198 | -93.63961 | 36186 ft | 396 kts | 297° |
| 2026-05-03 23:57 | 36.13007 | -93.70412 | 36187 ft | 397 kts | 297° |
| 2026-05-03 23:58 | 36.14831 | -93.76855 | 36188 ft | 397 kts | 297° |
| 2026-05-03 23:58 | 36.16648 | -93.83311 | 36189 ft | 397 kts | 297° |
| 2026-05-03 23:59 | 36.18445 | -93.89783 | 36189 ft | 397 kts | 297° |
| 2026-05-03 23:59 | 36.20221 | -93.96213 | 36190 ft | 397 kts | 297° |
| 2026-05-04 00:00 | 36.22006 | -94.02685 | 36191 ft | 398 kts | 297° |
| 2026-05-04 00:00 | 36.23806 | -94.09213 | 36190 ft | 398 kts | 297° |
| 2026-05-04 00:01 | 36.25342 | -94.15787 | 36190 ft | 403 kts | 291° |
| 2026-05-04 00:01 | 36.26520 | -94.22582 | 36187 ft | 403 kts | 290° |
| 2026-05-04 00:02 | 36.27681 | -94.29386 | 36182 ft | 403 kts | 290° |
| 2026-05-04 00:02 | 36.28851 | -94.36179 | 36181 ft | 402 kts | 290° |
| 2026-05-04 00:03 | 36.30023 | -94.42957 | 36185 ft | 402 kts | 291° |
| 2026-05-04 00:03 | 36.31192 | -94.49730 | 36188 ft | 401 kts | 291° |
| 2026-05-04 00:04 | 36.32383 | -94.56492 | 36189 ft | 402 kts | 291° |
| 2026-05-04 00:04 | 36.33595 | -94.63271 | 36189 ft | 402 kts | 291° |
| 2026-05-04 00:05 | 36.34786 | -94.70043 | 36188 ft | 401 kts | 291° |
| 2026-05-04 00:05 | 36.35962 | -94.76806 | 36187 ft | 401 kts | 291° |
| 2026-05-04 00:06 | 36.37131 | -94.83566 | 36185 ft | 400 kts | 291° |
| 2026-05-04 00:06 | 36.38098 | -94.89181 | 36178 ft | 401 kts | 291° |
| 2026-05-04 00:07 | 36.39259 | -94.95957 | 36174 ft | 401 kts | 290° |
| 2026-05-04 00:07 | 36.40416 | -95.02735 | 36172 ft | 402 kts | 291° |
| 2026-05-04 00:08 | 36.41572 | -95.09527 | 36169 ft | 402 kts | 290° |
| 2026-05-04 00:08 | 36.42723 | -95.16322 | 36159 ft | 402 kts | 290° |
| 2026-05-04 00:09 | 36.43872 | -95.23126 | 36151 ft | 402 kts | 290° |
| 2026-05-04 00:09 | 36.45007 | -95.29871 | 36147 ft | 402 kts | 290° |
| 2026-05-04 00:10 | 36.46145 | -95.36666 | 36144 ft | 402 kts | 290° |
| 2026-05-04 00:10 | 36.47281 | -95.43464 | 36140 ft | 402 kts | 290° |
| 2026-05-04 00:11 | 36.48413 | -95.50267 | 36139 ft | 402 kts | 290° |
| 2026-05-04 00:11 | 36.49543 | -95.57082 | 36139 ft | 402 kts | 290° |
| 2026-05-04 00:12 | 36.50668 | -95.63894 | 36137 ft | 402 kts | 290° |
| 2026-05-04 00:12 | 36.51789 | -95.70709 | 36137 ft | 402 kts | 290° |
| 2026-05-04 00:13 | 36.52901 | -95.77489 | 36137 ft | 402 kts | 290° |
| 2026-05-04 00:13 | 36.54014 | -95.84302 | 36137 ft | 402 kts | 290° |
| 2026-05-04 00:14 | 36.55127 | -95.91144 | 36136 ft | 402 kts | 290° |
| 2026-05-04 00:14 | 36.56232 | -95.97965 | 36136 ft | 402 kts | 290° |
| 2026-05-04 00:15 | 36.57335 | -96.04797 | 36136 ft | 404 kts | 290° |
| 2026-05-04 00:15 | 36.58431 | -96.11609 | 36136 ft | 404 kts | 290° |
| 2026-05-04 00:16 | 36.59527 | -96.18453 | 36135 ft | 404 kts | 290° |
| 2026-05-04 00:16 | 36.60619 | -96.25293 | 36134 ft | 402 kts | 290° |
| 2026-05-04 00:17 | 36.61708 | -96.32141 | 36132 ft | 403 kts | 290° |
| 2026-05-04 00:17 | 36.62792 | -96.38985 | 36131 ft | 403 kts | 290° |
| 2026-05-04 00:18 | 36.63871 | -96.45825 | 36128 ft | 403 kts | 289° |
| 2026-05-04 00:18 | 36.64941 | -96.52630 | 36125 ft | 403 kts | 289° |
| 2026-05-04 00:19 | 36.66013 | -96.59486 | 36122 ft | 404 kts | 289° |
| 2026-05-04 00:19 | 36.67084 | -96.66350 | 36120 ft | 403 kts | 289° |
| 2026-05-04 00:20 | 36.68149 | -96.73209 | 36117 ft | 403 kts | 289° |
| 2026-05-04 00:20 | 36.69233 | -96.80053 | 36115 ft | 403 kts | 289° |
| 2026-05-04 00:21 | 36.70299 | -96.86909 | 36113 ft | 403 kts | 289° |
| 2026-05-04 00:21 | 36.71346 | -96.93777 | 36112 ft | 404 kts | 289° |
| 2026-05-04 00:22 | 36.72387 | -97.00662 | 36110 ft | 404 kts | 289° |
| 2026-05-04 00:22 | 36.73425 | -97.07541 | 36110 ft | 404 kts | 289° |
| 2026-05-04 00:23 | 36.74534 | -97.14385 | 36110 ft | 400 kts | 292° |
| 2026-05-04 00:23 | 36.76388 | -97.20801 | 36110 ft | 394 kts | 300° |
| 2026-05-04 00:24 | 36.78555 | -97.27088 | 36110 ft | 394 kts | 300° |
| 2026-05-04 00:24 | 36.80726 | -97.33379 | 36111 ft | 394 kts | 300° |
| 2026-05-04 00:25 | 36.82890 | -97.39666 | 36111 ft | 394 kts | 300° |
| 2026-05-04 00:25 | 36.85050 | -97.45956 | 36111 ft | 394 kts | 300° |
| 2026-05-04 00:26 | 36.87202 | -97.52239 | 36111 ft | 394 kts | 300° |
| 2026-05-04 00:26 | 36.89369 | -97.58486 | 36111 ft | 394 kts | 300° |
| 2026-05-04 00:27 | 36.91560 | -97.64771 | 36111 ft | 394 kts | 300° |
| 2026-05-04 00:27 | 36.93731 | -97.71057 | 36111 ft | 394 kts | 300° |
| 2026-05-04 00:28 | 36.95894 | -97.77359 | 36111 ft | 394 kts | 299° |
| 2026-05-04 00:28 | 36.98047 | -97.83651 | 36103 ft | 394 kts | 299° |
| 2026-05-04 00:29 | 37.00195 | -97.89947 | 36103 ft | 394 kts | 299° |
| 2026-05-04 00:29 | 37.02341 | -97.96250 | 36110 ft | 394 kts | 299° |
| 2026-05-04 00:30 | 37.04482 | -98.02558 | 36116 ft | 394 kts | 299° |
| 2026-05-04 00:30 | 37.06632 | -98.08904 | 36117 ft | 396 kts | 298° |
| 2026-05-04 00:31 | 37.08766 | -98.15219 | 36113 ft | 396 kts | 298° |
| 2026-05-04 00:31 | 37.10910 | -98.21573 | 36115 ft | 396 kts | 298° |
| 2026-05-04 00:32 | 37.13048 | -98.27927 | 36116 ft | 396 kts | 298° |
| 2026-05-04 00:32 | 37.15184 | -98.34286 | 36117 ft | 396 kts | 298° |
| 2026-05-04 00:33 | 37.18380 | -98.43829 | 36119 ft | 396 kts | 298° |
| 2026-05-04 00:34 | 37.20510 | -98.50204 | 36120 ft | 396 kts | 298° |
| 2026-05-04 00:34 | 37.22634 | -98.56578 | 36120 ft | 396 kts | 298° |
| 2026-05-04 00:35 | 37.24759 | -98.62968 | 36120 ft | 396 kts | 298° |
| 2026-05-04 00:35 | 37.26866 | -98.69318 | 36120 ft | 396 kts | 298° |
| 2026-05-04 00:36 | 37.28978 | -98.75695 | 36121 ft | 396 kts | 298° |
| 2026-05-04 00:36 | 37.31093 | -98.82097 | 36123 ft | 397 kts | 298° |
| 2026-05-04 00:37 | 37.33205 | -98.88503 | 36124 ft | 397 kts | 298° |
| 2026-05-04 00:37 | 37.35317 | -98.94922 | 36129 ft | 397 kts | 298° |
| 2026-05-04 00:38 | 37.37426 | -99.01348 | 36132 ft | 398 kts | 298° |
| 2026-05-04 00:38 | 37.39533 | -99.07783 | 36135 ft | 398 kts | 297° |
| 2026-05-04 00:39 | 37.41630 | -99.14199 | 36139 ft | 399 kts | 297° |
| 2026-05-04 00:39 | 37.43734 | -99.20652 | 36142 ft | 398 kts | 297° |
| 2026-05-04 00:40 | 37.45836 | -99.27112 | 36145 ft | 399 kts | 297° |
| 2026-05-04 00:40 | 37.47932 | -99.33569 | 36149 ft | 399 kts | 297° |
| 2026-05-04 00:41 | 37.50031 | -99.40049 | 36152 ft | 399 kts | 297° |
| 2026-05-04 00:41 | 37.52127 | -99.46535 | 36156 ft | 400 kts | 297° |
| 2026-05-04 00:42 | 37.54218 | -99.53022 | 36158 ft | 399 kts | 297° |
| 2026-05-04 00:42 | 37.56308 | -99.59519 | 36161 ft | 400 kts | 297° |
| 2026-05-04 00:43 | 37.58396 | -99.66022 | 36163 ft | 400 kts | 297° |
| 2026-05-04 00:43 | 37.60481 | -99.72535 | 36165 ft | 400 kts | 297° |
| 2026-05-04 00:44 | 37.62561 | -99.79042 | 36168 ft | 399 kts | 297° |
| 2026-05-04 00:44 | 37.64622 | -99.85509 | 36170 ft | 400 kts | 296° |
| 2026-05-04 00:45 | 37.66690 | -99.92012 | 36170 ft | 400 kts | 296° |
| 2026-05-04 00:45 | 37.68759 | -99.98531 | 36171 ft | 400 kts | 296° |
| 2026-05-04 00:46 | 37.70827 | -100.05064 | 36171 ft | 400 kts | 296° |
| 2026-05-04 00:46 | 37.72890 | -100.11594 | 36172 ft | 400 kts | 296° |
| 2026-05-04 00:47 | 37.74948 | -100.18127 | 36175 ft | 400 kts | 296° |
| 2026-05-04 00:47 | 37.77006 | -100.24671 | 36179 ft | 400 kts | 296° |
| 2026-05-04 00:48 | 37.79060 | -100.31217 | 36184 ft | 400 kts | 296° |
| 2026-05-04 00:48 | 37.81128 | -100.37745 | 36191 ft | 400 kts | 296° |
| 2026-05-04 00:49 | 37.83171 | -100.44252 | 36197 ft | 400 kts | 296° |
| 2026-05-04 00:49 | 37.85206 | -100.50809 | 36203 ft | 401 kts | 296° |
| 2026-05-04 00:50 | 37.87240 | -100.57392 | 36207 ft | 401 kts | 296° |
| 2026-05-04 00:50 | 37.89271 | -100.63973 | 36209 ft | 401 kts | 296° |
| 2026-05-04 00:51 | 37.91302 | -100.70555 | 36210 ft | 401 kts | 296° |
| 2026-05-04 00:51 | 37.93529 | -100.77005 | 36210 ft | 399 kts | 300° |
| 2026-05-04 00:52 | 37.95988 | -100.83245 | 36210 ft | 399 kts | 300° |
| 2026-05-04 00:52 | 37.98436 | -100.89563 | 36210 ft | 399 kts | 300° |
| 2026-05-04 00:53 | 38.00866 | -100.95900 | 36211 ft | 399 kts | 300° |
| 2026-05-04 00:53 | 38.03279 | -101.02218 | 36210 ft | 397 kts | 300° |
| 2026-05-04 00:54 | 38.05694 | -101.08514 | 36211 ft | 397 kts | 300° |
| 2026-05-04 00:54 | 38.07737 | -101.13731 | 36212 ft | 397 kts | 300° |
| 2026-05-04 00:55 | 38.10145 | -101.20037 | 36212 ft | 397 kts | 300° |
| 2026-05-04 00:55 | 38.12931 | -101.27401 | 36219 ft | 398 kts | 299° |
| 2026-05-04 00:56 | 38.14933 | -101.32708 | 36226 ft | 398 kts | 299° |
| 2026-05-04 00:56 | 38.17324 | -101.39054 | 36230 ft | 398 kts | 299° |
| 2026-05-04 00:57 | 38.19777 | -101.45300 | 36233 ft | 396 kts | 303° |
| 2026-05-04 00:57 | 38.22688 | -101.51236 | 36237 ft | 396 kts | 306° |
| 2026-05-04 00:58 | 38.25681 | -101.57126 | 36241 ft | 396 kts | 306° |
| 2026-05-04 00:58 | 38.28644 | -101.63038 | 36245 ft | 396 kts | 306° |
| 2026-05-04 00:59 | 38.31596 | -101.68967 | 36249 ft | 396 kts | 305° |
| 2026-05-04 00:59 | 38.34523 | -101.74863 | 36260 ft | 396 kts | 305° |
| 2026-05-04 01:00 | 38.37464 | -101.80797 | 36269 ft | 396 kts | 305° |
| 2026-05-04 01:00 | 38.40444 | -101.86705 | 36272 ft | 396 kts | 306° |
| 2026-05-04 01:01 | 38.43409 | -101.92619 | 36275 ft | 396 kts | 305° |
| 2026-05-04 01:01 | 38.46347 | -101.98568 | 36277 ft | 396 kts | 305° |
| 2026-05-04 01:02 | 38.49272 | -102.04519 | 36278 ft | 395 kts | 305° |
| 2026-05-04 01:02 | 38.52188 | -102.10465 | 36280 ft | 395 kts | 305° |
| 2026-05-04 01:03 | 38.55103 | -102.16412 | 36281 ft | 395 kts | 305° |
| 2026-05-04 01:03 | 38.57995 | -102.22325 | 36282 ft | 395 kts | 305° |
| 2026-05-04 01:04 | 38.60891 | -102.28278 | 36283 ft | 393 kts | 305° |
| 2026-05-04 01:04 | 38.63774 | -102.34224 | 36295 ft | 393 kts | 305° |
| 2026-05-04 01:05 | 38.66648 | -102.40167 | 36301 ft | 393 kts | 305° |
| 2026-05-04 01:05 | 38.69521 | -102.46115 | 36303 ft | 392 kts | 304° |
| 2026-05-04 01:06 | 38.72381 | -102.52047 | 36304 ft | 391 kts | 304° |
| 2026-05-04 01:06 | 38.75243 | -102.57988 | 36305 ft | 391 kts | 305° |
| 2026-05-04 01:07 | 38.78130 | -102.63889 | 36309 ft | 390 kts | 305° |
| 2026-05-04 01:07 | 38.80990 | -102.69740 | 36314 ft | 389 kts | 305° |
| 2026-05-04 01:08 | 38.83832 | -102.75653 | 36319 ft | 389 kts | 304° |
| 2026-05-04 01:08 | 38.86662 | -102.81578 | 36321 ft | 389 kts | 304° |
| 2026-05-04 01:09 | 38.89495 | -102.87523 | 35967 ft | 389 kts | 304° |
| 2026-05-04 01:09 | 38.90900 | -102.90474 | 35402 ft | 387 kts | 304° |
| 2026-05-04 01:09 | 38.92297 | -102.93408 | 34874 ft | 384 kts | 304° |
| 2026-05-04 01:09 | 38.93687 | -102.96324 | 34374 ft | 381 kts | 304° |
| 2026-05-04 01:10 | 38.95060 | -102.99213 | 33886 ft | 377 kts | 304° |
| 2026-05-04 01:10 | 38.96440 | -103.02060 | 33407 ft | 374 kts | 305° |
| 2026-05-04 01:10 | 38.97799 | -103.04847 | 32943 ft | 371 kts | 305° |
| 2026-05-04 01:10 | 38.99174 | -103.07687 | 32473 ft | 367 kts | 305° |
| 2026-05-04 01:11 | 39.00500 | -103.10434 | 32022 ft | 364 kts | 305° |
| 2026-05-04 01:11 | 39.01827 | -103.13190 | 31571 ft | 361 kts | 305° |
| 2026-05-04 01:11 | 39.03146 | -103.15924 | 31125 ft | 358 kts | 305° |
| 2026-05-04 01:11 | 39.04457 | -103.18650 | 30683 ft | 355 kts | 305° |
| 2026-05-04 01:12 | 39.05758 | -103.21345 | 30245 ft | 353 kts | 305° |
| 2026-05-04 01:12 | 39.07043 | -103.24025 | 29804 ft | 350 kts | 305° |
| 2026-05-04 01:12 | 39.08306 | -103.26681 | 29357 ft | 347 kts | 305° |
| 2026-05-04 01:12 | 39.09556 | -103.29319 | 28909 ft | 344 kts | 305° |
| 2026-05-04 01:13 | 39.10795 | -103.31941 | 28463 ft | 341 kts | 304° |
| 2026-05-04 01:13 | 39.12019 | -103.34536 | 28022 ft | 338 kts | 304° |
| 2026-05-04 01:13 | 39.13232 | -103.37110 | 27584 ft | 335 kts | 304° |
| 2026-05-04 01:13 | 39.14420 | -103.39633 | 27155 ft | 332 kts | 304° |
| 2026-05-04 01:14 | 39.15628 | -103.42199 | 26717 ft | 329 kts | 304° |
| 2026-05-04 01:14 | 39.16792 | -103.44674 | 26294 ft | 326 kts | 304° |
| 2026-05-04 01:14 | 39.17964 | -103.47162 | 25866 ft | 323 kts | 304° |
| 2026-05-04 01:14 | 39.19126 | -103.49631 | 25445 ft | 321 kts | 304° |
| 2026-05-04 01:15 | 39.20278 | -103.52082 | 25025 ft | 318 kts | 304° |
| 2026-05-04 01:15 | 39.21426 | -103.54504 | 24612 ft | 315 kts | 304° |
| 2026-05-04 01:15 | 39.22558 | -103.56908 | 24196 ft | 312 kts | 304° |
| 2026-05-04 01:15 | 39.23679 | -103.59297 | 23786 ft | 310 kts | 304° |
| 2026-05-04 01:16 | 39.24789 | -103.61667 | 23376 ft | 307 kts | 304° |
| 2026-05-04 01:16 | 39.25888 | -103.64015 | 22970 ft | 305 kts | 304° |
| 2026-05-04 01:16 | 39.26980 | -103.66347 | 22565 ft | 302 kts | 304° |
| 2026-05-04 01:16 | 39.28061 | -103.68659 | 22171 ft | 299 kts | 304° |
| 2026-05-04 01:17 | 39.29138 | -103.70945 | 21767 ft | 297 kts | 305° |
| 2026-05-04 01:17 | 39.30282 | -103.73141 | 21367 ft | 294 kts | 307° |
| 2026-05-04 01:17 | 39.31446 | -103.75260 | 20974 ft | 291 kts | 307° |
| 2026-05-04 01:17 | 39.32605 | -103.77394 | 20577 ft | 289 kts | 307° |
| 2026-05-04 01:18 | 39.33745 | -103.79522 | 20183 ft | 287 kts | 307° |
| 2026-05-04 01:18 | 39.34871 | -103.81644 | 19788 ft | 285 kts | 306° |
| 2026-05-04 01:18 | 39.35984 | -103.83753 | 19396 ft | 282 kts | 306° |
| 2026-05-04 01:18 | 39.37088 | -103.85844 | 19002 ft | 282 kts | 306° |
| 2026-05-04 01:19 | 39.38198 | -103.87956 | 18603 ft | 288 kts | 306° |
| 2026-05-04 01:19 | 39.39338 | -103.90124 | 18190 ft | 294 kts | 306° |
| 2026-05-04 01:19 | 39.40495 | -103.92325 | 17764 ft | 298 kts | 306° |
| 2026-05-04 01:19 | 39.41660 | -103.94541 | 17333 ft | 297 kts | 306° |
| 2026-05-04 01:20 | 39.42814 | -103.96739 | 16894 ft | 295 kts | 306° |
| 2026-05-04 01:20 | 39.43748 | -103.99097 | 16524 ft | 294 kts | 292° |
| 2026-05-04 01:20 | 39.44114 | -104.01702 | 16140 ft | 296 kts | 278° |
| 2026-05-04 01:20 | 39.44126 | -104.04364 | 15732 ft | 297 kts | 272° |
| 2026-05-04 01:21 | 39.44007 | -104.07028 | 15317 ft | 296 kts | 270° |
| 2026-05-04 01:21 | 39.43869 | -104.09682 | 14897 ft | 294 kts | 271° |
| 2026-05-04 01:21 | 39.43762 | -104.12318 | 14494 ft | 291 kts | 273° |
| 2026-05-04 01:21 | 39.43963 | -104.14866 | 14239 ft | 287 kts | 284° |
| 2026-05-04 01:22 | 39.44570 | -104.17326 | 13955 ft | 286 kts | 293° |
| 2026-05-04 01:22 | 39.45252 | -104.19680 | 13863 ft | 274 kts | 293° |
| 2026-05-04 01:22 | 39.45909 | -104.21938 | 13773 ft | 262 kts | 293° |
| 2026-05-04 01:22 | 39.46540 | -104.24105 | 13643 ft | 253 kts | 293° |
| 2026-05-04 01:23 | 39.47154 | -104.26224 | 13463 ft | 250 kts | 293° |
| 2026-05-04 01:23 | 39.47781 | -104.28324 | 13288 ft | 251 kts | 294° |
| 2026-05-04 01:23 | 39.48409 | -104.30434 | 13065 ft | 252 kts | 293° |
| 2026-05-04 01:23 | 39.49028 | -104.32538 | 12802 ft | 247 kts | 293° |
| 2026-05-04 01:24 | 39.49632 | -104.34607 | 12549 ft | 243 kts | 292° |
| 2026-05-04 01:24 | 39.50223 | -104.36645 | 12298 ft | 240 kts | 292° |
| 2026-05-04 01:24 | 39.50806 | -104.38661 | 12047 ft | 239 kts | 292° |
| 2026-05-04 01:24 | 39.51388 | -104.40680 | 11795 ft | 239 kts | 292° |
| 2026-05-04 01:25 | 39.51967 | -104.42697 | 11546 ft | 239 kts | 292° |
| 2026-05-04 01:25 | 39.52550 | -104.44724 | 11296 ft | 241 kts | 292° |
| 2026-05-04 01:25 | 39.53133 | -104.46762 | 11045 ft | 240 kts | 292° |
| 2026-05-04 01:25 | 39.53703 | -104.48752 | 10796 ft | 238 kts | 291° |
| 2026-05-04 01:26 | 39.54279 | -104.50767 | 10549 ft | 240 kts | 291° |
| 2026-05-04 01:26 | 39.54859 | -104.52795 | 10297 ft | 239 kts | 291° |
| 2026-05-04 01:26 | 39.55435 | -104.54814 | 10046 ft | 239 kts | 291° |
| 2026-05-04 01:26 | 39.56013 | -104.56833 | 9796 ft | 239 kts | 291° |
| 2026-05-04 01:27 | 39.56590 | -104.58853 | 9546 ft | 239 kts | 291° |
| 2026-05-04 01:27 | 39.57168 | -104.60871 | 9294 ft | 238 kts | 291° |
| 2026-05-04 01:27 | 39.57742 | -104.62871 | 9048 ft | 235 kts | 291° |
| 2026-05-04 01:27 | 39.58571 | -104.64615 | 8920 ft | 224 kts | 317° |
| 2026-05-04 01:28 | 39.59917 | -104.65490 | 8931 ft | 213 kts | 342° |
| 2026-05-04 01:28 | 39.61363 | -104.65822 | 8951 ft | 209 kts | 352° |
| 2026-05-04 01:28 | 39.62786 | -104.66007 | 9004 ft | 202 kts | 353° |
| 2026-05-04 01:28 | 39.64161 | -104.66141 | 8993 ft | 194 kts | 355° |
| 2026-05-04 01:29 | 39.65454 | -104.66196 | 8804 ft | 178 kts | 357° |
| 2026-05-04 01:29 | 39.66650 | -104.66212 | 8576 ft | 164 kts | 358° |
| 2026-05-04 01:29 | 39.67760 | -104.66214 | 8345 ft | 156 kts | 358° |
| 2026-05-04 01:29 | 39.68839 | -104.66208 | 8132 ft | 155 kts | 358° |
| 2026-05-04 01:30 | 39.69921 | -104.66199 | 7932 ft | 156 kts | 358° |
| 2026-05-04 01:30 | 39.71013 | -104.66188 | 7725 ft | 157 kts | 359° |
| 2026-05-04 01:30 | 39.72112 | -104.66177 | 7519 ft | 159 kts | 359° |
| 2026-05-04 01:30 | 39.73214 | -104.66164 | 7305 ft | 159 kts | 359° |
| 2026-05-04 01:31 | 39.74313 | -104.66152 | 7090 ft | 157 kts | 358° |
| 2026-05-04 01:31 | 39.75405 | -104.66139 | 6885 ft | 160 kts | 359° |
| 2026-05-04 01:31 | 39.76529 | -104.66126 | 6673 ft | 163 kts | 358° |
| 2026-05-04 01:31 | 39.77656 | -104.66113 | 6455 ft | 161 kts | 358° |
| 2026-05-04 01:32 | 39.78773 | -104.66100 | 6242 ft | 160 kts | 358° |
| 2026-05-04 01:32 | 39.79877 | -104.66088 | 6022 ft | 158 kts | 358° |
| 2026-05-04 01:32 | 39.80988 | -104.66081 | 5808 ft | 161 kts | 358° |
| 2026-05-04 01:32 | 39.82103 | -104.66060 | 5616 ft | 157 kts | 359° |
| 2026-05-04 01:33 | 39.83165 | -104.66049 | 5453 ft | 146 kts | 358° |
| 2026-05-04 01:33 | 39.84093 | -104.66037 | 5442 ft | 111 kts | 357° |
| 2026-05-04 01:33 | 39.84660 | -104.66037 | 5442 ft | 49 kts | 348° |
| 2026-05-04 01:33 | 39.84865 | -104.66130 | 5442 ft | 24 kts | 334° |
| 2026-05-04 01:34 | 39.84969 | -104.66201 | 5442 ft | 15 kts | 331° |
| 2026-05-04 01:34 | 39.85060 | -104.66243 | 5442 ft | 12 kts | 357° |
| 2026-05-04 01:34 | 39.85143 | -104.66241 | 5442 ft | 13 kts | 2° |
| 2026-05-04 01:34 | 39.85243 | -104.66236 | 5442 ft | 15 kts | 2° |
| 2026-05-04 01:35 | 39.85345 | -104.66229 | 5442 ft | 12 kts | 5° |
| 2026-05-04 01:35 | 39.85394 | -104.66233 | 5442 ft | 2 kts | 353° |
| 2026-05-04 01:35 | 39.85425 | -104.66236 | 5442 ft | 8 kts | 359° |
| 2026-05-04 01:35 | 39.85486 | -104.66236 | 5442 ft | 10 kts | 0° |
| 2026-05-04 01:36 | 39.85574 | -104.66235 | 5442 ft | 14 kts | 2° |
| 2026-05-04 01:36 | 39.85678 | -104.66233 | 5442 ft | 15 kts | 0° |
| 2026-05-04 01:36 | 39.85780 | -104.66233 | 5442 ft | 14 kts | 359° |
| 2026-05-04 01:36 | 39.85883 | -104.66233 | 5442 ft | 16 kts | 0° |
| 2026-05-04 01:37 | 39.85993 | -104.66233 | 5442 ft | 15 kts | 360° |
| 2026-05-04 01:37 | 39.86097 | -104.66232 | 5442 ft | 14 kts | 1° |
| 2026-05-04 01:37 | 39.86194 | -104.66228 | 5442 ft | 14 kts | 1° |
| 2026-05-04 01:37 | 39.86285 | -104.66228 | 5442 ft | 13 kts | 360° |
| 2026-05-04 01:38 | 39.86376 | -104.66227 | 5442 ft | 15 kts | 0° |
| 2026-05-04 01:38 | 39.86475 | -104.66231 | 5442 ft | 11 kts | 337° |
| 2026-05-04 01:38 | 39.86507 | -104.66311 | 5442 ft | 12 kts | 271° |
| 2026-05-04 01:38 | 39.86508 | -104.66422 | 5442 ft | 12 kts | 270° |
| 2026-05-04 01:39 | 39.86501 | -104.66527 | 5442 ft | 11 kts | 251° |
| 2026-05-04 01:39 | 39.86463 | -104.66581 | 5442 ft | 8 kts | 174° |
| 2026-05-04 01:39 | 39.86415 | -104.66613 | 5442 ft | 9 kts | 268° |
| 2026-05-04 01:39 | 39.86416 | -104.66694 | 5442 ft | 9 kts | 271° |
| 2026-05-04 01:40 | 39.86417 | -104.66773 | 5442 ft | 9 kts | 271° |
| 2026-05-04 01:40 | 39.86417 | -104.66849 | 5442 ft | 8 kts | 270° |
| 2026-05-04 01:40 | 39.86418 | -104.66921 | 5442 ft | 8 kts | 270° |
| 2026-05-04 01:40 | 39.86418 | -104.66990 | 5442 ft | 7 kts | 270° |
| 2026-05-04 01:41 | 39.86419 | -104.67055 | 5442 ft | 7 kts | 270° |
| 2026-05-04 01:41 | 39.86419 | -104.67118 | 5442 ft | 7 kts | 270° |
| 2026-05-04 01:41 | 39.86419 | -104.67179 | 5442 ft | 6 kts | 259° |
| 2026-05-04 01:41 | 39.86406 | -104.67194 | 5442 ft | 2 kts | 197° |
| 2026-05-04 01:42 | 39.86382 | -104.67204 | 5442 ft | 4 kts | 197° |
| 2026-05-04 01:42 | 39.86369 | -104.67209 | 5442 ft | 2 kts | 197° |
| 2026-05-04 01:42 | 39.86362 | -104.67212 | 5442 ft | 0 kts | 198° |